Time;durP1;ratioP1;P1;durP2;ratioP2;P2;SDS_P1;SDS_P2;PMS_P1;PMS_P2;Temp;Humidity;BMP_temperature;BMP_pressure;BME280_temperature;BME280_humidity;BME280_pressure;Samples;Min_cycle;Max_cycle;Signal;HPM_P1;HPM_P2
2022/07/20 00:00:24;;;;;;;9.17;7.00;;;;;;;25.99;36.59;101302.19;5058312;28;20186;-72
2022/07/20 00:02:49;;;;;;;7.83;7.13;;;;;;;25.77;37.10;101303.16;5058645;28;20479;-73
2022/07/20 00:05:14;;;;;;;8.00;7.20;;;;;;;25.77;37.30;101302.31;5057970;28;20232;-76
2022/07/20 00:07:40;;;;;;;8.20;7.40;;;;;;;25.50;37.72;101300.78;5058149;28;20174;-77
2022/07/20 00:12:52;;;;;;;8.00;7.20;;;;;;;25.32;37.86;101304.25;5058117;28;20219;-73
2022/07/20 00:15:18;;;;;;;7.23;6.63;;;;;;;25.48;37.70;101299.13;5058028;28;20412;-74
2022/07/20 00:17:43;;;;;;;8.33;6.83;;;;;;;25.55;37.64;101293.44;5058102;28;20209;-74
2022/07/20 00:20:10;;;;;;;8.30;6.40;;;;;;;25.90;37.25;101292.78;5058052;28;20173;-71
2022/07/20 00:22:35;;;;;;;8.87;6.90;;;;;;;25.81;37.44;101295.88;5057596;28;20161;-71
2022/07/20 00:25:01;;;;;;;7.63;6.90;;;;;;;25.54;37.82;101298.84;5058034;28;20683;-71
2022/07/20 00:27:26;;;;;;;7.97;7.03;;;;;;;25.65;37.30;101299.22;5058039;28;20318;-73
2022/07/20 00:29:51;;;;;;;7.93;7.23;;;;;;;25.77;37.25;101291.63;5058286;28;20169;-72
2022/07/20 00:32:17;;;;;;;9.07;7.50;;;;;;;25.95;37.06;101295.25;5057724;28;20201;-75
2022/07/20 00:34:42;;;;;;;9.90;7.43;;;;;;;25.76;37.33;101297.88;5057764;28;20174;-75
2022/07/20 00:37:08;;;;;;;7.90;7.13;;;;;;;25.85;37.36;101290.31;5058144;28;20172;-74
2022/07/20 00:39:33;;;;;;;8.70;7.87;;;;;;;25.62;37.58;101291.38;5057893;28;20266;-74
2022/07/20 00:41:59;;;;;;;7.80;7.00;;;;;;;25.62;37.53;101290.50;5058271;28;20180;-75
2022/07/20 00:44:24;;;;;;;6.80;6.30;;;;;;;25.47;37.71;101287.56;5058026;28;20240;-75
2022/07/20 00:46:53;;;;;;;8.53;7.60;;;;;;;25.39;37.81;101287.06;5057726;28;20173;-78
2022/07/20 00:49:19;;;;;;;7.10;6.53;;;;;;;25.51;37.86;101285.66;5057730;28;20444;-75
2022/07/20 00:51:44;;;;;;;8.30;7.50;;;;;;;25.42;37.76;101294.06;5057915;28;20431;-80
2022/07/20 00:54:10;;;;;;;7.80;7.10;;;;;;;25.47;37.75;101287.56;5056774;28;20332;-77
2022/07/20 00:56:36;;;;;;;8.10;7.40;;;;;;;25.18;38.18;101289.69;5057050;28;20180;-75
2022/07/20 00:59:03;;;;;;;9.93;7.10;;;;;;;25.10;38.34;101286.50;5058042;28;20199;-74
2022/07/20 01:01:28;;;;;;;8.00;6.90;;;;;;;25.08;38.54;101285.69;5057009;28;20411;-76
2022/07/20 01:03:54;;;;;;;8.07;7.37;;;;;;;25.28;38.40;101289.31;5057651;28;20478;-75
2022/07/20 01:06:19;;;;;;;7.47;6.67;;;;;;;25.20;38.99;101284.28;5058234;28;20544;-76
2022/07/20 01:08:48;;;;;;;8.17;7.33;;;;;;;25.45;38.64;101278.78;5057483;28;20195;-76
2022/07/20 01:11:13;;;;;;;11.27;7.00;;;;;;;25.19;38.92;101280.75;5061628;28;20170;-75
2022/07/20 01:13:39;;;;;;;7.63;6.93;;;;;;;25.21;38.98;101281.56;5061691;28;20463;-73
2022/07/20 01:16:04;;;;;;;7.80;7.10;;;;;;;25.16;39.23;101282.69;5061500;28;20260;-72
2022/07/20 01:18:30;;;;;;;8.73;7.60;;;;;;;24.97;39.50;101274.59;5061451;28;20180;-71
2022/07/20 01:20:58;;;;;;;8.60;7.50;;;;;;;25.16;39.47;101272.88;5061680;28;20256;-74
2022/07/20 01:23:24;;;;;;;7.90;7.20;;;;;;;24.82;39.92;101266.31;5061153;28;20264;-71
2022/07/20 01:25:50;;;;;;;8.83;7.93;;;;;;;25.01;39.78;101266.41;5061259;28;20447;-70
2022/07/20 01:28:15;;;;;;;9.77;7.57;;;;;;;24.97;39.87;101267.47;5061522;28;20249;-72
2022/07/20 01:30:41;;;;;;;11.50;8.00;;;;;;;24.85;39.95;101258.16;5061236;28;20757;-72
2022/07/20 01:33:07;;;;;;;9.23;7.30;;;;;;;24.92;40.42;101258.78;5060888;28;20475;-72
2022/07/20 01:35:32;;;;;;;7.83;7.03;;;;;;;24.97;40.12;101255.94;5061282;28;20408;-73
2022/07/20 01:37:58;;;;;;;8.17;7.40;;;;;;;24.73;40.33;101261.34;5061107;28;20493;-73
2022/07/20 01:40:23;;;;;;;8.60;7.73;;;;;;;24.86;40.33;101259.91;5061096;28;20169;-73
2022/07/20 01:42:49;;;;;;;12.30;8.13;;;;;;;24.80;40.42;101253.97;5060607;28;20527;-72
2022/07/20 01:45:14;;;;;;;8.67;7.73;;;;;;;24.57;40.76;101257.56;5060724;28;20542;-73
2022/07/20 01:47:40;;;;;;;10.33;8.07;;;;;;;24.66;41.12;101252.75;5060906;28;20193;-71
2022/07/20 01:50:06;;;;;;;7.90;7.20;;;;;;;24.76;40.58;101255.03;5061173;28;20181;-71
2022/07/20 01:52:31;;;;;;;8.10;7.40;;;;;;;24.29;41.29;101256.00;5060701;28;20236;-77
2022/07/20 01:54:57;;;;;;;10.50;7.57;;;;;;;24.79;40.68;101246.88;5060442;28;20472;-76
2022/07/20 01:57:22;;;;;;;8.23;7.53;;;;;;;24.45;40.98;101254.47;5061033;28;20216;-74
2022/07/20 01:59:47;;;;;;;8.80;8.00;;;;;;;24.43;41.25;101242.13;5060703;28;20176;-74
2022/07/20 02:02:13;;;;;;;8.47;7.67;;;;;;;24.64;40.79;101238.63;5060643;28;20169;-73
2022/07/20 02:04:38;;;;;;;7.77;7.07;;;;;;;24.48;40.92;101237.50;5060695;28;20204;-73
2022/07/20 02:07:03;;;;;;;8.40;7.60;;;;;;;24.60;40.62;101233.44;5060429;28;20421;-74
2022/07/20 02:09:29;;;;;;;8.73;7.30;;;;;;;24.59;40.71;101234.38;5060604;28;20187;-73
2022/07/20 02:11:54;;;;;;;8.73;7.93;;;;;;;24.51;40.90;101232.88;5060978;28;20170;-73
2022/07/20 02:14:20;;;;;;;8.33;7.30;;;;;;;24.42;41.30;101241.25;5060170;28;20217;-73
2022/07/20 02:16:45;;;;;;;8.37;7.53;;;;;;;24.45;41.27;101243.81;5060217;28;20237;-74
2022/07/20 02:19:11;;;;;;;8.43;7.60;;;;;;;24.14;42.09;101242.38;5060524;28;20420;-72
2022/07/20 02:21:36;;;;;;;8.17;7.33;;;;;;;24.08;42.05;101245.25;5058859;28;20170;-73
2022/07/20 02:24:02;;;;;;;12.33;7.47;;;;;;;24.23;42.01;101238.44;5059870;28;20248;-71
2022/07/20 02:26:27;;;;;;;9.80;8.13;;;;;;;24.35;41.94;101229.09;5060507;28;20502;-70
2022/07/20 02:28:52;;;;;;;8.67;7.60;;;;;;;24.45;41.63;101230.47;5060073;28;20174;-71
2022/07/20 02:31:18;;;;;;;9.43;7.40;;;;;;;24.08;42.23;101237.25;5059865;28;20539;-73
2022/07/20 02:33:44;;;;;;;9.77;7.77;;;;;;;23.98;42.52;101235.91;5060314;28;20196;-76
2022/07/20 02:36:10;;;;;;;8.43;7.60;;;;;;;24.13;42.08;101235.28;5059868;28;20169;-75
2022/07/20 02:38:36;;;;;;;13.47;8.33;;;;;;;24.13;42.31;101234.44;5059986;28;20435;-78
2022/07/20 02:41:01;;;;;;;8.30;7.60;;;;;;;24.23;42.08;101227.81;5059778;28;20170;-74
2022/07/20 02:43:27;;;;;;;15.00;7.30;;;;;;;24.36;41.88;101233.53;5068824;28;20450;-80
2022/07/20 02:45:52;;;;;;;8.97;8.03;;;;;;;23.94;42.50;101235.16;5079874;28;20169;-73
2022/07/20 02:48:17;;;;;;;9.43;7.97;;;;;;;24.14;42.56;101234.38;5080037;28;20192;-74
2022/07/20 02:50:43;;;;;;;8.90;8.00;;;;;;;23.84;42.79;101231.94;5079657;28;20169;-74
2022/07/20 02:53:09;;;;;;;9.07;8.17;;;;;;;24.16;41.78;101235.16;5079334;28;20225;-75
2022/07/20 02:55:35;;;;;;;10.63;7.30;;;;;;;23.96;42.82;101225.28;5079847;28;20180;-74
2022/07/20 02:58:01;;;;;;;8.47;7.40;;;;;;;24.11;42.65;101223.84;5079452;28;20517;-74
2022/07/20 03:00:26;;;;;;;9.77;7.93;;;;;;;24.19;42.36;101215.53;5079408;28;20439;-74
2022/07/20 03:02:52;;;;;;;10.20;8.07;;;;;;;24.38;41.79;101220.97;5079653;28;20183;-74
2022/07/20 03:05:18;;;;;;;8.83;8.03;;;;;;;23.86;42.56;101216.75;5079137;28;20581;-74
2022/07/20 03:07:43;;;;;;;10.00;7.50;;;;;;;23.95;42.52;101217.38;5079313;28;20255;-74
2022/07/20 03:10:09;;;;;;;8.50;7.70;;;;;;;23.69;42.82;101212.09;5079847;28;20211;-72
2022/07/20 03:12:35;;;;;;;10.03;8.30;;;;;;;24.04;41.86;101214.34;5076835;28;20201;-72
2022/07/20 03:15:01;;;;;;;11.37;8.90;;;;;;;24.01;42.01;101214.47;5059174;28;20826;-74
2022/07/20 03:17:26;;;;;;;8.73;7.93;;;;;;;23.76;42.40;101215.41;5059512;28;20183;-74
2022/07/20 03:19:52;;;;;;;9.87;7.67;;;;;;;23.98;41.57;101209.28;5059032;28;20420;-74
2022/07/20 03:22:18;;;;;;;8.70;7.90;;;;;;;23.69;42.29;101212.09;5059070;28;20194;-74
2022/07/20 03:24:43;;;;;;;8.67;7.80;;;;;;;23.83;42.02;101211.56;5059335;28;20844;-74
2022/07/20 03:27:09;;;;;;;9.43;7.67;;;;;;;23.75;41.70;101208.31;5058983;28;20193;-75
2022/07/20 03:29:34;;;;;;;9.43;7.60;;;;;;;23.75;41.90;101210.13;5058914;28;20464;-74
2022/07/20 03:32:00;;;;;;;8.03;7.20;;;;;;;23.90;41.51;101209.56;5058545;28;20258;-74
2022/07/20 03:34:25;;;;;;;8.63;6.97;;;;;;;23.72;42.11;101211.13;5058709;28;20181;-76
2022/07/20 03:36:50;;;;;;;8.93;8.03;;;;;;;24.02;41.36;101210.88;5058789;28;20182;-75
2022/07/20 03:39:16;;;;;;;10.10;7.27;;;;;;;24.46;40.64;101210.88;5059157;28;20180;-74
2022/07/20 03:41:41;;;;;;;8.00;7.30;;;;;;;24.25;41.09;101212.63;5058622;28;20182;-75
2022/07/20 03:44:07;;;;;;;9.03;8.00;;;;;;;23.83;41.40;101214.22;5058498;28;20173;-76
2022/07/20 03:46:32;;;;;;;8.57;7.50;;;;;;;24.08;41.13;101221.28;5058879;28;20166;-74
2022/07/20 03:48:58;;;;;;;8.40;7.70;;;;;;;24.15;41.28;101220.13;5058605;28;20176;-75
2022/07/20 03:51:23;;;;;;;9.10;8.10;;;;;;;24.30;41.15;101215.09;5058596;28;20447;-74
2022/07/20 03:53:48;;;;;;;10.00;7.07;;;;;;;24.14;41.42;101215.72;5058410;28;20261;-78
2022/07/20 03:56:14;;;;;;;9.33;8.07;;;;;;;23.94;41.73;101213.84;5058465;28;20201;-76
2022/07/20 03:58:39;;;;;;;7.77;6.93;;;;;;;24.02;41.54;101216.22;5058508;28;20170;-75
2022/07/20 04:01:05;;;;;;;8.63;7.83;;;;;;;24.58;40.75;101214.84;5058266;28;20548;-79
2022/07/20 04:03:30;;;;;;;9.10;7.83;;;;;;;25.02;40.09;101212.13;5058145;28;20216;-77
2022/07/20 04:05:55;;;;;;;8.07;7.27;;;;;;;25.48;38.68;101214.56;5058676;28;20462;-77
2022/07/20 04:08:21;;;;;;;10.57;7.33;;;;;;;25.82;38.52;101213.00;5058164;28;20180;-75
2022/07/20 04:10:46;;;;;;;10.00;7.60;;;;;;;25.29;38.49;101218.97;5058153;28;20211;-76
2022/07/20 04:13:11;;;;;;;10.73;7.60;;;;;;;25.93;37.99;101222.34;5058710;28;20193;-73
2022/07/20 04:15:37;;;;;;;8.70;7.90;;;;;;;25.85;37.89;101220.03;5057966;28;20182;-72
2022/07/20 04:18:02;;;;;;;12.50;8.00;;;;;;;25.49;38.53;101221.66;5058084;28;20177;-72
2022/07/20 04:20:28;;;;;;;8.47;7.67;;;;;;;26.77;36.62;101216.53;5058537;28;20291;-76
2022/07/20 04:22:54;;;;;;;9.50;7.23;;;;;;;26.94;36.33;101202.25;5058054;28;20214;-74
2022/07/20 04:25:19;;;;;;;11.00;7.50;;;;;;;26.88;36.20;101217.69;5057983;28;20796;-74
2022/07/20 04:27:45;;;;;;;8.43;7.57;;;;;;;27.18;35.97;101211.72;5058372;28;20173;-73
2022/07/20 04:30:11;;;;;;;8.77;7.90;;;;;;;26.35;37.51;101210.53;5057959;28;20192;-73
2022/07/20 04:32:37;;;;;;;8.67;7.80;;;;;;;26.55;37.36;101213.09;5057609;28;20476;-79
2022/07/20 04:35:03;;;;;;;8.63;7.67;;;;;;;27.08;36.32;101210.44;5058182;28;20511;-78
2022/07/20 04:37:28;;;;;;;8.13;7.43;;;;;;;27.80;34.69;101212.91;5057741;28;20174;-75
2022/07/20 04:39:53;;;;;;;9.90;7.93;;;;;;;27.97;34.61;101203.88;5057903;28;20442;-75
2022/07/20 04:42:19;;;;;;;8.50;7.70;;;;;;;28.25;33.95;101208.59;5054311;28;20268;-74
2022/07/20 04:44:44;;;;;;;8.20;7.40;;;;;;;27.90;34.98;101208.72;5039995;28;20248;-71
2022/07/20 04:47:10;;;;;;;12.10;7.07;;;;;;;27.75;34.83;101206.91;5041848;28;20227;-77
2022/07/20 04:49:35;;;;;;;10.93;7.67;;;;;;;27.94;34.75;101210.31;5042582;28;20162;-74
2022/07/20 04:52:00;;;;;;;9.20;7.50;;;;;;;28.81;32.83;101208.94;5042132;28;20176;-75
2022/07/20 04:54:26;;;;;;;8.03;7.33;;;;;;;28.47;33.11;101212.69;5041606;28;20254;-74
2022/07/20 04:56:52;;;;;;;7.90;7.07;;;;;;;28.29;34.39;101204.78;5042238;28;20166;-76
2022/07/20 04:59:17;;;;;;;8.10;6.80;;;;;;;29.22;32.38;101193.94;5041819;28;20170;-73
2022/07/20 05:01:42;;;;;;;13.53;7.70;;;;;;;28.08;33.02;101212.25;5041471;28;20419;-73
2022/07/20 05:04:08;;;;;;;11.30;8.00;;;;;;;29.18;32.31;101192.41;5042026;28;20166;-74
2022/07/20 05:06:33;;;;;;;11.43;7.47;;;;;;;28.78;33.26;101198.41;5041654;28;20563;-75
2022/07/20 05:08:59;;;;;;;10.33;7.10;;;;;;;29.37;32.67;101189.47;5041510;28;20528;-74
2022/07/20 05:11:26;;;;;;;8.40;7.53;;;;;;;29.63;31.89;101190.50;5041737;28;20447;-75
2022/07/20 05:13:52;;;;;;;8.10;7.30;;;;;;;28.72;33.57;101190.69;5053398;28;20216;-76
2022/07/20 05:16:17;;;;;;;10.20;7.50;;;;;;;28.40;33.15;101190.75;5061379;28;20416;-76
2022/07/20 05:18:43;;;;;;;9.63;7.47;;;;;;;30.15;31.14;101183.59;5061711;28;20442;-75
2022/07/20 05:21:08;;;;;;;9.93;7.23;;;;;;;30.20;30.70;101186.84;5061244;28;20170;-74
2022/07/20 05:23:33;;;;;;;9.43;7.90;;;;;;;29.30;31.71;101190.81;5061150;28;20173;-74
2022/07/20 05:25:59;;;;;;;12.57;7.17;;;;;;;29.24;31.85;101189.31;5061628;28;20244;-74
2022/07/20 05:28:24;;;;;;;9.83;7.00;;;;;;;29.71;31.12;101190.00;5061231;28;20173;-74
2022/07/20 05:30:50;;;;;;;17.50;8.30;;;;;;;30.25;30.67;101186.53;5061056;28;20527;-74
2022/07/20 05:33:16;;;;;;;10.30;7.50;;;;;;;32.20;28.21;101183.75;5060476;28;20584;-74
2022/07/20 05:35:42;;;;;;;11.50;7.77;;;;;;;29.47;31.50;101185.25;5061009;28;20416;-75
2022/07/20 05:38:07;;;;;;;8.50;7.47;;;;;;;30.49;30.47;101184.06;5061103;28;20422;-74
2022/07/20 05:40:32;;;;;;;11.33;7.10;;;;;;;30.90;29.58;101188.44;5061305;28;20216;-74
2022/07/20 05:42:58;;;;;;;8.80;7.20;;;;;;;30.96;29.86;101183.56;5060884;28;20180;-75
2022/07/20 05:45:23;;;;;;;10.93;7.13;;;;;;;30.85;30.08;101179.81;5060502;28;20192;-75
2022/07/20 05:47:49;;;;;;;10.27;7.00;;;;;;;30.17;31.11;101186.19;5061232;28;20239;-75
2022/07/20 05:50:14;;;;;;;9.80;7.10;;;;;;;29.94;31.14;101188.53;5061014;28;20174;-75
2022/07/20 05:52:40;;;;;;;7.80;6.80;;;;;;;31.76;29.07;101182.47;5060596;28;20231;-76
2022/07/20 05:55:06;;;;;;;13.27;7.27;;;;;;;31.50;28.56;101182.50;5060305;28;20307;-74
2022/07/20 05:57:31;;;;;;;11.23;7.17;;;;;;;30.34;30.54;101180.53;5060385;28;20276;-75
2022/07/20 05:59:56;;;;;;;9.23;7.40;;;;;;;30.97;29.51;101179.94;5060346;28;20448;-75
2022/07/20 06:02:22;;;;;;;7.67;6.90;;;;;;;32.62;27.75;101180.59;5060753;28;20162;-73
2022/07/20 06:04:47;;;;;;;14.90;7.53;;;;;;;32.69;27.57;101184.53;5060233;28;20193;-75
2022/07/20 06:07:12;;;;;;;8.27;7.03;;;;;;;32.00;28.58;101187.88;5060460;28;20527;-74
2022/07/20 06:09:38;;;;;;;14.83;7.73;;;;;;;31.60;28.58;101178.22;5060838;28;20497;-74
2022/07/20 06:12:03;;;;;;;10.00;7.97;;;;;;;32.68;27.53;101178.28;5060046;28;20177;-73
2022/07/20 06:14:29;;;;;;;16.30;7.50;;;;;;;32.78;27.36;101183.84;5059967;28;20181;-74
2022/07/20 06:16:54;;;;;;;8.33;7.40;;;;;;;31.42;29.11;101191.16;5060464;28;20181;-79
2022/07/20 06:19:20;;;;;;;8.60;7.00;;;;;;;32.56;27.66;101180.09;5060194;28;20260;-76
2022/07/20 06:21:45;;;;;;;9.23;7.10;;;;;;;33.81;26.46;101182.09;5060202;28;20531;-75
2022/07/20 06:24:11;;;;;;;7.30;6.60;;;;;;;33.18;26.55;101188.84;5060335;28;20174;-74
2022/07/20 06:26:36;;;;;;;9.20;6.90;;;;;;;33.10;26.86;101198.50;5060209;28;20249;-76
2022/07/20 06:29:01;;;;;;;10.07;6.87;;;;;;;34.13;25.83;101190.25;5059962;28;20299;-74
2022/07/20 06:31:27;;;;;;;7.50;6.60;;;;;;;32.98;26.68;101198.50;5060109;28;20184;-77
2022/07/20 06:33:52;;;;;;;6.70;6.00;;;;;;;34.95;24.20;101198.75;5059665;28;20248;-77
2022/07/20 06:36:18;;;;;;;7.10;6.60;;;;;;;34.78;24.53;101201.03;5060176;28;20197;-77
2022/07/20 06:38:44;;;;;;;8.60;7.10;;;;;;;35.45;23.94;101193.44;5060343;28;20169;-74
2022/07/20 06:41:09;;;;;;;6.73;6.13;;;;;;;33.96;25.51;101198.91;5059867;28;20809;-73
2022/07/20 06:43:35;;;;;;;7.43;6.27;;;;;;;32.79;26.85;101209.03;5059649;28;20169;-75
2022/07/20 06:46:00;;;;;;;7.87;6.53;;;;;;;33.65;26.52;101206.78;5060016;28;20166;-75
2022/07/20 06:48:25;;;;;;;8.10;6.50;;;;;;;32.38;28.29;101205.75;5059613;28;20173;-73
2022/07/20 06:50:51;;;;;;;7.27;6.43;;;;;;;34.58;26.09;101197.34;5059524;28;20174;-73
2022/07/20 06:53:16;;;;;;;9.43;7.03;;;;;;;34.63;25.20;101213.19;5059612;28;20233;-70
2022/07/20 06:55:42;;;;;;;7.33;6.10;;;;;;;35.41;25.54;101198.31;5059508;28;20174;-74
2022/07/20 06:58:07;;;;;;;7.37;6.67;;;;;;;35.54;24.88;101208.91;5059607;28;20255;-75
2022/07/20 07:00:33;;;;;;;8.40;6.20;;;;;;;33.83;26.45;101207.16;5058638;28;20174;-76
2022/07/20 07:02:58;;;;;;;10.20;6.03;;;;;;;33.26;26.97;101200.91;5059370;28;20170;-76
2022/07/20 07:05:23;;;;;;;7.03;6.17;;;;;;;34.61;24.95;101209.75;5059691;28;20307;-71
2022/07/20 07:07:49;;;;;;;7.50;6.67;;;;;;;35.69;24.06;101206.66;5058463;28;20223;-70
2022/07/20 07:10:14;;;;;;;8.97;6.67;;;;;;;34.70;25.41;101201.69;5059038;28;20232;-73
2022/07/20 07:12:39;;;;;;;8.07;6.47;;;;;;;36.60;23.17;101196.66;5058920;28;20189;-73
2022/07/20 07:15:05;;;;;;;7.43;6.73;;;;;;;35.17;24.79;101201.31;5058695;28;20181;-73
2022/07/20 07:17:31;;;;;;;9.13;7.07;;;;;;;34.50;25.50;101200.69;5058351;28;20457;-74
2022/07/20 07:19:59;;;;;;;8.17;6.40;;;;;;;35.42;24.71;101199.16;5059402;28;20543;-72
2022/07/20 07:22:26;;;;;;;7.87;7.07;;;;;;;36.39;23.40;101194.97;5059047;28;20174;-74
2022/07/20 07:24:51;;;;;;;7.23;6.17;;;;;;;37.40;22.13;101194.47;5057918;28;20817;-73
2022/07/20 07:27:16;;;;;;;12.37;6.33;;;;;;;35.36;24.83;101199.72;5059095;28;20418;-74
2022/07/20 07:29:42;;;;;;;8.93;6.80;;;;;;;37.72;22.29;101191.28;5058706;28;20438;-73
2022/07/20 07:32:07;;;;;;;9.23;6.43;;;;;;;37.88;21.59;101187.09;5058569;28;20191;-73
2022/07/20 07:34:33;;;;;;;8.17;6.00;;;;;;;36.71;23.33;101191.06;5058926;28;20255;-74
2022/07/20 07:36:58;;;;;;;8.67;6.47;;;;;;;36.46;23.28;101197.97;5058534;28;20276;-74
2022/07/20 07:39:23;;;;;;;8.43;7.10;;;;;;;36.24;23.67;101195.38;5058689;28;20427;-75
2022/07/20 07:41:49;;;;;;;10.23;6.33;;;;;;;36.11;23.99;101192.06;5059244;28;20181;-73
2022/07/20 07:44:14;;;;;;;7.13;6.37;;;;;;;36.07;24.04;101201.50;5058384;28;20213;-73
2022/07/20 07:46:40;;;;;;;8.70;6.53;;;;;;;37.91;22.07;101182.19;5058524;28;20185;-72
2022/07/20 07:49:05;;;;;;;6.43;5.87;;;;;;;37.40;22.86;101191.75;5058828;28;20240;-72
2022/07/20 07:51:31;;;;;;;8.90;6.00;;;;;;;36.48;23.22;101194.13;5058287;28;20427;-71
2022/07/20 07:53:57;;;;;;;10.73;6.43;;;;;;;38.69;21.74;101190.75;5057852;28;20278;-76
2022/07/20 07:56:22;;;;;;;8.30;6.20;;;;;;;37.17;22.71;101186.69;5058583;28;20180;-74
2022/07/20 07:58:48;;;;;;;6.80;6.17;;;;;;;37.92;22.75;101178.44;5057993;28;20172;-74
2022/07/20 08:01:13;;;;;;;9.80;6.43;;;;;;;34.39;26.01;101195.34;5048747;28;20580;-75
2022/07/20 08:03:39;;;;;;;8.90;6.60;;;;;;;37.13;23.33;101185.28;5057491;28;20558;-75
2022/07/20 08:06:04;;;;;;;6.23;5.73;;;;;;;36.45;23.77;101188.94;5056551;28;20195;-76
2022/07/20 08:08:31;;;;;;;8.93;7.40;;;;;;;36.85;23.23;101193.38;5057933;28;20231;-75
2022/07/20 08:10:57;;;;;;;6.33;5.93;;;;;;;36.77;23.39;101190.50;5058366;28;20191;-82
2022/07/20 08:13:23;;;;;;;6.77;5.70;;;;;;;38.11;21.84;101184.78;5057332;28;20512;-77
2022/07/20 08:15:48;;;;;;;7.00;6.30;;;;;;;37.27;22.70;101185.78;5057926;28;20407;-76
2022/07/20 08:18:14;;;;;;;9.03;5.93;;;;;;;37.95;22.87;101184.63;5058144;28;20161;-81
2022/07/20 08:20:39;;;;;;;6.60;5.87;;;;;;;37.13;23.24;101181.69;5057900;28;20165;-86
2022/07/20 08:23:05;;;;;;;7.50;6.70;;;;;;;36.18;24.53;101201.38;5057947;28;20172;-79
2022/07/20 08:25:30;;;;;;;7.33;6.57;;;;;;;37.11;23.36;101198.16;5058101;28;20169;-79
2022/07/20 08:28:15;;;;;;;6.50;5.90;;;;;;;37.15;23.46;101185.97;5057752;28;20168;-86
2022/07/20 08:30:42;;;;;;;8.60;6.40;;;;;;;37.43;23.65;101186.03;5057532;28;20557;-76
2022/07/20 08:33:08;;;;;;;6.83;6.13;;;;;;;37.52;23.24;101184.25;5057812;28;20462;-79
2022/07/20 08:35:34;;;;;;;6.40;5.80;;;;;;;37.67;23.45;101181.88;5057838;28;21360;-76
2022/07/20 08:37:59;;;;;;;8.83;6.53;;;;;;;39.14;21.48;101189.66;5058179;28;20165;-81
2022/07/20 08:40:26;;;;;;;6.63;6.03;;;;;;;38.66;22.20;101183.75;5057911;28;20220;-83
2022/07/20 08:42:51;;;;;;;7.33;6.10;;;;;;;36.69;23.71;101182.22;5058729;28;20203;-84
2022/07/20 08:45:17;;;;;;;10.63;6.80;;;;;;;37.23;23.91;101186.09;5057943;28;20435;-83
2022/07/20 08:47:43;;;;;;;7.30;6.03;;;;;;;37.71;23.17;101183.28;5057702;28;20212;-85
2022/07/20 08:50:08;;;;;;;7.83;6.30;;;;;;;38.00;22.72;101180.41;5057137;28;20230;-82
2022/07/20 08:52:34;;;;;;;9.63;6.30;;;;;;;38.17;22.87;101186.88;5057706;28;20451;-86
2022/07/20 08:54:59;;;;;;;12.90;6.40;;;;;;;38.53;22.54;101178.69;5039941;28;20225;-85
2022/07/20 08:57:25;;;;;;;7.20;5.97;;;;;;;38.32;22.87;101183.63;5057529;28;20451;-83
2022/07/20 08:59:50;;;;;;;7.23;6.57;;;;;;;37.90;22.63;101188.66;5057880;28;20189;-79
2022/07/20 09:02:16;;;;;;;8.60;6.60;;;;;;;38.53;22.44;101184.13;5057551;28;20173;-82
2022/07/20 09:04:56;;;;;;;6.70;6.03;;;;;;;38.96;21.92;101178.84;5057301;28;20255;-79
2022/07/20 09:07:45;;;;;;;8.10;6.07;;;;;;;39.83;20.68;101169.69;5057505;28;20175;-80
2022/07/20 09:10:13;;;;;;;6.50;5.90;;;;;;;38.45;22.51;101180.50;5057291;28;20533;-78
2022/07/20 09:13:00;;;;;;;6.80;6.10;;;;;;;38.92;21.87;101170.13;5057429;28;20459;-78
2022/07/20 09:15:31;;;;;;;6.33;5.70;;;;;;;40.35;21.00;101172.16;5057312;28;20420;-77
2022/07/20 09:18:17;;;;;;;12.70;6.10;;;;;;;40.72;20.27;101170.78;5057375;28;20469;-77
2022/07/20 09:20:45;;;;;;;11.83;6.73;;;;;;;40.61;20.16;101170.28;5057053;28;20750;-78
2022/07/20 09:23:14;;;;;;;6.60;5.97;;;;;;;39.78;21.11;101172.91;5057390;28;20541;-74
2022/07/20 09:26:06;;;;;;;6.60;5.85;;;;;;;40.88;20.09;101163.56;5057158;28;20172;-75
2022/07/20 09:28:45;;;;;;;9.02;5.63;;;;;;;41.37;19.74;101162.59;5057303;28;20165;-74
2022/07/20 09:31:19;;;;;;;9.40;5.93;;;;;;;39.10;21.97;101158.28;5060180;28;20522;-77
2022/07/20 09:34:03;;;;;;;6.70;5.88;;;;;;;40.13;21.44;101165.50;5060907;28;20542;-76
2022/07/20 09:36:32;;;;;;;6.25;5.43;;;;;;;40.29;21.12;101163.81;5060778;28;20169;-75
2022/07/20 09:39:11;;;;;;;9.93;5.30;;;;;;;40.34;20.52;101166.84;5060757;28;20230;-74
2022/07/20 09:41:39;;;;;;;8.52;5.93;;;;;;;41.20;19.75;101153.56;5060816;28;20165;-75
2022/07/20 09:44:05;;;;;;;6.78;5.80;;;;;;;40.79;19.96;101164.63;5060569;28;20205;-75
2022/07/20 09:46:35;;;;;;;6.38;5.70;;;;;;;38.85;22.05;101168.19;5060602;28;20287;-76
2022/07/20 09:49:03;;;;;;;7.03;6.10;;;;;;;41.68;19.66;101148.06;5060200;28;20165;-79
2022/07/20 09:51:34;;;;;;;11.43;6.20;;;;;;;41.31;20.04;101155.06;5059856;28;20203;-76
2022/07/20 09:54:06;;;;;;;8.18;5.75;;;;;;;40.03;21.26;101167.50;5058688;28;20240;-77
2022/07/20 09:56:33;;;;;;;10.35;6.78;;;;;;;40.72;20.19;101161.75;5059961;28;20470;-80
2022/07/20 09:58:59;;;;;;;9.03;6.40;;;;;;;39.75;21.16;101160.44;5060341;28;20169;-77
2022/07/20 10:01:27;;;;;;;10.68;6.35;;;;;;;40.50;21.08;101164.16;5060975;28;20427;-78
2022/07/20 10:03:55;;;;;;;9.80;6.37;;;;;;;40.37;20.56;101150.97;5060121;28;20583;-77
2022/07/20 10:06:23;;;;;;;7.53;5.88;;;;;;;40.29;21.20;101164.66;5060347;28;20527;-79
2022/07/20 10:08:49;;;;;;;14.27;6.10;;;;;;;40.03;21.03;101153.88;5059813;28;20169;-76
2022/07/20 10:11:16;;;;;;;11.48;6.30;;;;;;;39.99;21.58;101160.69;5060547;28;20175;-80
2022/07/20 10:13:42;;;;;;;9.02;6.18;;;;;;;39.52;21.83;101151.16;5059506;28;20263;-80
2022/07/20 10:16:13;;;;;;;10.00;6.80;;;;;;;38.92;22.56;101155.66;5060134;28;20535;-75
2022/07/20 10:18:39;;;;;;;8.70;5.70;;;;;;;41.19;20.64;101144.53;5060341;28;20175;-79
2022/07/20 10:21:35;;;;;;;6.05;5.32;;;;;;;40.74;20.77;101144.13;5060147;28;20173;-80
2022/07/20 10:24:14;;;;;;;9.48;6.00;;;;;;;42.08;19.79;101140.59;5059499;28;20299;-78
2022/07/20 10:26:39;;;;;;;14.00;6.68;;;;;;;42.17;18.88;101139.50;5059936;28;20195;-78
2022/07/20 10:29:05;;;;;;;9.85;6.00;;;;;;;41.94;19.19;101136.78;5060063;28;20173;-76
2022/07/20 10:31:50;;;;;;;6.03;5.53;;;;;;;42.14;18.97;101142.63;5059326;28;20207;-76
2022/07/20 10:34:38;;;;;;;8.13;5.60;;;;;;;41.25;19.91;101148.44;5059898;28;20427;-76
2022/07/20 10:37:36;;;;;;;8.65;6.20;;;;;;;40.11;20.89;101150.28;5059316;28;20226;-77
2022/07/20 10:40:22;;;;;;;8.90;5.72;;;;;;;40.17;20.06;101146.91;5059184;28;20267;-76
2022/07/20 10:42:50;;;;;;;8.35;6.03;;;;;;;40.56;19.94;101144.31;5058759;28;20200;-76
2022/07/20 10:48:11;;;;;;;7.47;5.93;;;;;;;39.39;21.06;101149.78;5059900;28;20432;-76
2022/07/20 10:50:38;;;;;;;7.38;5.93;;;;;;;40.78;20.17;101141.03;5059777;28;20176;-77
2022/07/20 10:53:10;;;;;;;11.02;6.18;;;;;;;40.70;20.37;101145.53;5059562;28;20538;-76
2022/07/20 10:55:35;;;;;;;6.47;5.80;;;;;;;40.75;19.47;101137.63;5059488;28;20193;-77
2022/07/20 10:58:26;;;;;;;6.97;5.22;;;;;;;41.14;19.70;101132.41;5059455;28;20180;-77
2022/07/20 11:00:57;;;;;;;7.78;5.93;;;;;;;40.83;19.66;101134.03;5059237;28;20191;-76
2022/07/20 11:03:27;;;;;;;9.00;5.55;;;;;;;41.17;19.50;101132.91;5059112;28;20228;-76
2022/07/20 11:06:18;;;;;;;10.98;5.88;;;;;;;40.91;19.24;101124.94;5059473;28;20193;-77
2022/07/20 11:08:54;;;;;;;7.38;5.70;;;;;;;39.69;19.79;101135.69;5059437;28;20173;-75
2022/07/20 11:11:26;;;;;;;7.22;5.45;;;;;;;41.15;18.92;101120.44;5059242;28;20197;-75
2022/07/20 11:13:52;;;;;;;8.85;5.78;;;;;;;41.43;18.90;101117.25;5059187;28;20187;-76
2022/07/20 11:16:22;;;;;;;6.93;5.40;;;;;;;42.69;17.52;101121.41;5059139;28;20279;-75
2022/07/20 11:18:49;;;;;;;6.00;5.40;;;;;;;39.39;20.83;101121.63;5059070;28;20227;-75
2022/07/20 11:21:14;;;;;;;11.90;5.33;;;;;;;40.17;18.21;101114.13;5059441;28;20243;-77
2022/07/20 11:23:39;;;;;;;11.73;5.67;;;;;;;40.45;18.34;101113.72;5058802;28;20645;-76
2022/07/20 11:26:05;;;;;;;5.63;5.13;;;;;;;41.10;17.52;101120.97;5058926;28;20577;-76
2022/07/20 11:28:33;;;;;;;5.97;5.37;;;;;;;41.15;17.60;101114.97;5059240;28;20175;-76